ASA383 KSFO-KSAN
Flight info
| Callsign | ASA383 |
|---|---|
| Flight time | 1h 11m |
| Altitude | 35000 |
| Route | WESLA5 YYUNG LAX COMIX2 |
| Aircraft | B738/M-SDE2E3FGHIRWXY/LB1 |
Departure
| Time | 2026-05-06 04:57 |
|---|---|
| Airport | San Francisco International Airport (KSFO) |
Arrival
| Time | 2026-05-06 06:08 |
|---|---|
| Airport | San Diego International Airport (KSAN) |
| Time | Latitude | Longitude | Altitude | Speed | Heading |
|---|---|---|---|---|---|
| 2026-05-06 04:34 | 37.61308 | -122.38366 | 21 ft | 0 kts | 298° |
| 2026-05-06 04:48 | 37.61302 | -122.38352 | 22 ft | 4 kts | 298° |
| 2026-05-06 04:48 | 37.61291 | -122.38326 | 21 ft | 4 kts | 301° |
| 2026-05-06 04:48 | 37.61276 | -122.38311 | 23 ft | 4 kts | 13° |
| 2026-05-06 04:48 | 37.61252 | -122.38324 | 23 ft | 4 kts | 28° |
| 2026-05-06 04:49 | 37.61229 | -122.38339 | 24 ft | 4 kts | 27° |
| 2026-05-06 04:49 | 37.61205 | -122.38354 | 23 ft | 4 kts | 27° |
| 2026-05-06 04:49 | 37.61189 | -122.38365 | 22 ft | 0 kts | 27° |
| 2026-05-06 04:51 | 37.61197 | -122.38359 | 21 ft | 4 kts | 27° |
| 2026-05-06 04:51 | 37.61248 | -122.38326 | 24 ft | 11 kts | 27° |
| 2026-05-06 04:52 | 37.61309 | -122.38270 | 22 ft | 11 kts | 58° |
| 2026-05-06 04:52 | 37.61343 | -122.38187 | 21 ft | 11 kts | 39° |
| 2026-05-06 04:52 | 37.61399 | -122.38124 | 22 ft | 12 kts | 68° |
| 2026-05-06 04:52 | 37.61364 | -122.37990 | 24 ft | 20 kts | 117° |
| 2026-05-06 04:53 | 37.61299 | -122.37837 | 22 ft | 20 kts | 118° |
| 2026-05-06 04:53 | 37.61238 | -122.37682 | 22 ft | 19 kts | 109° |
| 2026-05-06 04:53 | 37.61252 | -122.37522 | 22 ft | 19 kts | 57° |
| 2026-05-06 04:53 | 37.61357 | -122.37432 | 23 ft | 18 kts | 29° |
| 2026-05-06 04:54 | 37.61466 | -122.37359 | 21 ft | 17 kts | 26° |
| 2026-05-06 04:54 | 37.61550 | -122.37247 | 21 ft | 19 kts | 69° |
| 2026-05-06 04:54 | 37.61538 | -122.37079 | 21 ft | 21 kts | 117° |
| 2026-05-06 04:54 | 37.61463 | -122.36917 | 21 ft | 22 kts | 130° |
| 2026-05-06 04:55 | 37.61362 | -122.36766 | 23 ft | 23 kts | 121° |
| 2026-05-06 04:55 | 37.61286 | -122.36593 | 21 ft | 22 kts | 117° |
| 2026-05-06 04:55 | 37.61215 | -122.36423 | 21 ft | 22 kts | 118° |
| 2026-05-06 04:55 | 37.61146 | -122.36259 | 21 ft | 21 kts | 117° |
| 2026-05-06 04:56 | 37.61078 | -122.36100 | 21 ft | 20 kts | 118° |
| 2026-05-06 04:56 | 37.61071 | -122.35936 | 21 ft | 20 kts | 47° |
| 2026-05-06 04:56 | 37.61182 | -122.35879 | 21 ft | 17 kts | 326° |
| 2026-05-06 04:56 | 37.61259 | -122.36047 | 21 ft | 43 kts | 297° |
| 2026-05-06 04:57 | 37.61504 | -122.36630 | 21 ft | 106 kts | 298° |
| 2026-05-06 04:57 | 37.61918 | -122.37658 | 24 ft | 155 kts | 292° |
| 2026-05-06 04:57 | 37.62388 | -122.38943 | 489 ft | 159 kts | 294° |
| 2026-05-06 04:57 | 37.62857 | -122.40147 | 1319 ft | 150 kts | 295° |
| 2026-05-06 04:58 | 37.63370 | -122.41381 | 1712 ft | 170 kts | 300° |
| 2026-05-06 04:58 | 37.63970 | -122.42670 | 2418 ft | 169 kts | 297° |
| 2026-05-06 04:58 | 37.64583 | -122.44022 | 2793 ft | 194 kts | 298° |
| 2026-05-06 04:58 | 37.65301 | -122.45582 | 3015 ft | 215 kts | 298° |
| 2026-05-06 04:59 | 37.66083 | -122.47308 | 3226 ft | 236 kts | 298° |
| 2026-05-06 04:59 | 37.66833 | -122.49212 | 3511 ft | 253 kts | 282° |
| 2026-05-06 04:59 | 37.66689 | -122.51431 | 4030 ft | 262 kts | 247° |
| 2026-05-06 04:59 | 37.65594 | -122.53300 | 4652 ft | 273 kts | 219° |
| 2026-05-06 05:00 | 37.63872 | -122.54333 | 5375 ft | 278 kts | 189° |
| 2026-05-06 05:00 | 37.61944 | -122.54207 | 6028 ft | 282 kts | 161° |
| 2026-05-06 05:00 | 37.60113 | -122.53299 | 6746 ft | 284 kts | 154° |
| 2026-05-06 05:00 | 37.58292 | -122.52290 | 7417 ft | 288 kts | 154° |
| 2026-05-06 05:01 | 37.56453 | -122.51260 | 8134 ft | 290 kts | 152° |
| 2026-05-06 05:01 | 37.54593 | -122.50234 | 8837 ft | 294 kts | 156° |
| 2026-05-06 05:01 | 37.52674 | -122.49298 | 9545 ft | 297 kts | 156° |
| 2026-05-06 05:01 | 37.50751 | -122.48342 | 10246 ft | 299 kts | 155° |
| 2026-05-06 05:02 | 37.48736 | -122.47595 | 10828 ft | 308 kts | 174° |
| 2026-05-06 05:02 | 37.46581 | -122.47807 | 11492 ft | 312 kts | 186° |
| 2026-05-06 05:02 | 37.44415 | -122.48216 | 12151 ft | 316 kts | 187° |
| 2026-05-06 05:02 | 37.42224 | -122.48648 | 12801 ft | 321 kts | 187° |
| 2026-05-06 05:03 | 37.39988 | -122.49086 | 13049 ft | 341 kts | 187° |
| 2026-05-06 05:03 | 37.37574 | -122.49552 | 13313 ft | 358 kts | 187° |
| 2026-05-06 05:03 | 37.35080 | -122.50027 | 13878 ft | 366 kts | 187° |
| 2026-05-06 05:03 | 37.32551 | -122.50505 | 14509 ft | 369 kts | 187° |
| 2026-05-06 05:04 | 37.29998 | -122.50983 | 15158 ft | 372 kts | 187° |
| 2026-05-06 05:04 | 37.27419 | -122.51464 | 15796 ft | 376 kts | 187° |
| 2026-05-06 05:04 | 37.24814 | -122.51948 | 16406 ft | 381 kts | 187° |
| 2026-05-06 05:04 | 37.22176 | -122.52436 | 17027 ft | 385 kts | 187° |
| 2026-05-06 05:05 | 37.19511 | -122.52930 | 17641 ft | 389 kts | 187° |
| 2026-05-06 05:05 | 37.16805 | -122.53430 | 18194 ft | 396 kts | 187° |
| 2026-05-06 05:05 | 37.14059 | -122.53938 | 18738 ft | 400 kts | 187° |
| 2026-05-06 05:05 | 37.11291 | -122.54450 | 19302 ft | 403 kts | 187° |
| 2026-05-06 05:06 | 37.08539 | -122.54958 | 19837 ft | 407 kts | 187° |
| 2026-05-06 05:06 | 37.05725 | -122.55477 | 20365 ft | 411 kts | 187° |
| 2026-05-06 05:06 | 37.02880 | -122.55967 | 20864 ft | 414 kts | 182° |
| 2026-05-06 05:06 | 37.00027 | -122.55643 | 21337 ft | 412 kts | 161° |
| 2026-05-06 05:07 | 36.97416 | -122.54240 | 21885 ft | 408 kts | 146° |
| 2026-05-06 05:07 | 36.94957 | -122.52444 | 22277 ft | 414 kts | 144° |
| 2026-05-06 05:07 | 36.92443 | -122.50546 | 22348 ft | 429 kts | 144° |
| 2026-05-06 05:07 | 36.89853 | -122.48580 | 22510 ft | 440 kts | 144° |
| 2026-05-06 05:08 | 36.87205 | -122.46587 | 22849 ft | 446 kts | 145° |
| 2026-05-06 05:08 | 36.84526 | -122.44592 | 23331 ft | 449 kts | 145° |
| 2026-05-06 05:08 | 36.81828 | -122.42599 | 23790 ft | 451 kts | 145° |
| 2026-05-06 05:08 | 36.79119 | -122.40610 | 24210 ft | 453 kts | 145° |
| 2026-05-06 05:09 | 36.76395 | -122.38616 | 24626 ft | 454 kts | 145° |
| 2026-05-06 05:09 | 36.73698 | -122.36645 | 24993 ft | 457 kts | 145° |
| 2026-05-06 05:09 | 36.70952 | -122.34639 | 25374 ft | 459 kts | 145° |
| 2026-05-06 05:09 | 36.68186 | -122.32619 | 25738 ft | 462 kts | 145° |
| 2026-05-06 05:10 | 36.65410 | -122.30593 | 26101 ft | 464 kts | 145° |
| 2026-05-06 05:10 | 36.62619 | -122.28558 | 26476 ft | 465 kts | 145° |
| 2026-05-06 05:10 | 36.59819 | -122.26519 | 26857 ft | 467 kts | 145° |
| 2026-05-06 05:10 | 36.57007 | -122.24471 | 27197 ft | 469 kts | 145° |
| 2026-05-06 05:11 | 36.54180 | -122.22414 | 27520 ft | 471 kts | 145° |
| 2026-05-06 05:11 | 36.51338 | -122.20348 | 27836 ft | 474 kts | 145° |
| 2026-05-06 05:11 | 36.48489 | -122.18279 | 28158 ft | 476 kts | 145° |
| 2026-05-06 05:11 | 36.45624 | -122.16200 | 28504 ft | 477 kts | 144° |
| 2026-05-06 05:12 | 36.42755 | -122.14121 | 28844 ft | 479 kts | 144° |
| 2026-05-06 05:12 | 36.39867 | -122.12029 | 29142 ft | 481 kts | 144° |
| 2026-05-06 05:12 | 36.36972 | -122.09934 | 29423 ft | 483 kts | 144° |
| 2026-05-06 05:12 | 36.34064 | -122.07831 | 29705 ft | 485 kts | 144° |
| 2026-05-06 05:13 | 36.31146 | -122.05723 | 30084 ft | 485 kts | 144° |
| 2026-05-06 05:13 | 36.28270 | -122.03649 | 30486 ft | 483 kts | 144° |
| 2026-05-06 05:13 | 36.25369 | -122.01559 | 30904 ft | 480 kts | 144° |
| 2026-05-06 05:13 | 36.22487 | -121.99484 | 31266 ft | 479 kts | 144° |
| 2026-05-06 05:14 | 36.19606 | -121.97409 | 31566 ft | 479 kts | 144° |
| 2026-05-06 05:14 | 36.17271 | -121.95728 | 31808 ft | 479 kts | 144° |
| 2026-05-06 05:14 | 36.14530 | -121.93757 | 32116 ft | 478 kts | 144° |
| 2026-05-06 05:14 | 36.11653 | -121.91689 | 32468 ft | 477 kts | 144° |
| 2026-05-06 05:15 | 36.08783 | -121.89630 | 32801 ft | 476 kts | 144° |
| 2026-05-06 05:15 | 36.05919 | -121.87574 | 33112 ft | 476 kts | 144° |
| 2026-05-06 05:15 | 36.03053 | -121.85521 | 33414 ft | 475 kts | 144° |
| 2026-05-06 05:15 | 36.00257 | -121.83373 | 33707 ft | 469 kts | 135° |
| 2026-05-06 05:16 | 35.98047 | -121.80529 | 33958 ft | 454 kts | 120° |
| 2026-05-06 05:16 | 35.96170 | -121.77403 | 34322 ft | 452 kts | 120° |
| 2026-05-06 05:16 | 35.94846 | -121.75225 | 34519 ft | 451 kts | 120° |
| 2026-05-06 05:17 | 35.93221 | -121.72580 | 34705 ft | 452 kts | 121° |
| 2026-05-06 05:17 | 35.91308 | -121.69499 | 34909 ft | 453 kts | 121° |
| 2026-05-06 05:17 | 35.89381 | -121.66421 | 35105 ft | 453 kts | 121° |
| 2026-05-06 05:18 | 35.85481 | -121.60224 | 35109 ft | 458 kts | 121° |
| 2026-05-06 05:18 | 35.81610 | -121.54103 | 35096 ft | 452 kts | 121° |
| 2026-05-06 05:19 | 35.77754 | -121.48010 | 35115 ft | 450 kts | 121° |
| 2026-05-06 05:19 | 35.73905 | -121.41928 | 35107 ft | 450 kts | 121° |
| 2026-05-06 05:20 | 35.70058 | -121.35862 | 35106 ft | 450 kts | 121° |
| 2026-05-06 05:20 | 35.66205 | -121.29797 | 35123 ft | 450 kts | 121° |
| 2026-05-06 05:21 | 35.62346 | -121.23733 | 35123 ft | 451 kts | 121° |
| 2026-05-06 05:21 | 35.58473 | -121.17658 | 35109 ft | 452 kts | 121° |
| 2026-05-06 05:22 | 35.54593 | -121.11580 | 35142 ft | 451 kts | 121° |
| 2026-05-06 05:22 | 35.52703 | -121.08553 | 35490 ft | 441 kts | 119° |
| 2026-05-06 05:22 | 35.50979 | -121.05502 | 36000 ft | 430 kts | 115° |
| 2026-05-06 05:22 | 35.49464 | -121.02358 | 36325 ft | 424 kts | 111° |
| 2026-05-06 05:23 | 35.48197 | -120.99096 | 36304 ft | 425 kts | 105° |
| 2026-05-06 05:23 | 35.47243 | -120.95640 | 36059 ft | 431 kts | 97° |
| 2026-05-06 05:23 | 35.46135 | -120.88360 | 35742 ft | 445 kts | 105° |
| 2026-05-06 05:24 | 35.44656 | -120.84976 | 35498 ft | 454 kts | 117° |
| 2026-05-06 05:24 | 35.42596 | -120.82087 | 35449 ft | 460 kts | 133° |
| 2026-05-06 05:24 | 35.38404 | -120.76374 | 35383 ft | 448 kts | 118° |
| 2026-05-06 05:25 | 35.34860 | -120.69971 | 35221 ft | 453 kts | 117° |
| 2026-05-06 05:25 | 35.31287 | -120.63721 | 35124 ft | 447 kts | 118° |
| 2026-05-06 05:26 | 35.27611 | -120.57561 | 35124 ft | 449 kts | 119° |
| 2026-05-06 05:26 | 35.23871 | -120.51395 | 35129 ft | 452 kts | 120° |
| 2026-05-06 05:27 | 35.20089 | -120.45210 | 35118 ft | 455 kts | 120° |
| 2026-05-06 05:27 | 35.16291 | -120.38996 | 35137 ft | 456 kts | 120° |
| 2026-05-06 05:28 | 35.12489 | -120.32783 | 35119 ft | 456 kts | 120° |
| 2026-05-06 05:28 | 35.08721 | -120.26634 | 35108 ft | 454 kts | 120° |
| 2026-05-06 05:29 | 35.04935 | -120.20467 | 35110 ft | 453 kts | 120° |
| 2026-05-06 05:29 | 35.01164 | -120.14332 | 35107 ft | 451 kts | 120° |
| 2026-05-06 05:30 | 34.97403 | -120.08227 | 35121 ft | 449 kts | 119° |
| 2026-05-06 05:30 | 34.93653 | -120.02147 | 35098 ft | 448 kts | 120° |
| 2026-05-06 05:31 | 34.89912 | -119.96092 | 35096 ft | 447 kts | 120° |
| 2026-05-06 05:31 | 34.86171 | -119.90054 | 35078 ft | 445 kts | 120° |
| 2026-05-06 05:32 | 34.82448 | -119.84046 | 35083 ft | 444 kts | 120° |
| 2026-05-06 05:32 | 34.78747 | -119.78085 | 35066 ft | 445 kts | 120° |
| 2026-05-06 05:33 | 34.75017 | -119.72089 | 35068 ft | 445 kts | 120° |
| 2026-05-06 05:33 | 34.71274 | -119.66079 | 35081 ft | 447 kts | 120° |
| 2026-05-06 05:34 | 34.67506 | -119.60043 | 35075 ft | 449 kts | 120° |
| 2026-05-06 05:34 | 34.63719 | -119.53987 | 35071 ft | 450 kts | 120° |
| 2026-05-06 05:35 | 34.59923 | -119.47928 | 35063 ft | 452 kts | 120° |
| 2026-05-06 05:35 | 34.56755 | -119.42879 | 35056 ft | 452 kts | 120° |
| 2026-05-06 05:36 | 34.52331 | -119.35831 | 35064 ft | 450 kts | 120° |
| 2026-05-06 05:36 | 34.48542 | -119.29797 | 35067 ft | 449 kts | 120° |
| 2026-05-06 05:37 | 34.45367 | -119.24767 | 35099 ft | 448 kts | 121° |
| 2026-05-06 05:37 | 34.41562 | -119.18758 | 35072 ft | 449 kts | 121° |
| 2026-05-06 05:38 | 34.37758 | -119.12750 | 35086 ft | 449 kts | 121° |
| 2026-05-06 05:38 | 34.33983 | -119.06794 | 35077 ft | 449 kts | 121° |
| 2026-05-06 05:39 | 34.30179 | -119.00799 | 35072 ft | 449 kts | 121° |
| 2026-05-06 05:39 | 34.26374 | -118.94812 | 35097 ft | 449 kts | 122° |
| 2026-05-06 05:40 | 34.22557 | -118.88819 | 35080 ft | 450 kts | 122° |
| 2026-05-06 05:40 | 34.18738 | -118.82834 | 35052 ft | 450 kts | 122° |
| 2026-05-06 05:41 | 34.14916 | -118.76850 | 35081 ft | 449 kts | 122° |
| 2026-05-06 05:41 | 34.13001 | -118.73857 | 34795 ft | 454 kts | 122° |
| 2026-05-06 05:41 | 34.11063 | -118.70827 | 34251 ft | 456 kts | 122° |
| 2026-05-06 05:42 | 34.09129 | -118.67811 | 33710 ft | 453 kts | 122° |
| 2026-05-06 05:42 | 34.07212 | -118.64828 | 33285 ft | 448 kts | 122° |
| 2026-05-06 05:42 | 34.05312 | -118.61873 | 32837 ft | 442 kts | 121° |
| 2026-05-06 05:42 | 34.03419 | -118.58983 | 32427 ft | 437 kts | 121° |
| 2026-05-06 05:43 | 34.01559 | -118.56096 | 31993 ft | 432 kts | 120° |
| 2026-05-06 05:43 | 33.99742 | -118.53241 | 31555 ft | 427 kts | 120° |
| 2026-05-06 05:43 | 33.97940 | -118.50415 | 31136 ft | 423 kts | 120° |
| 2026-05-06 05:43 | 33.96175 | -118.47664 | 30748 ft | 418 kts | 120° |
| 2026-05-06 05:44 | 33.94398 | -118.44908 | 30332 ft | 414 kts | 120° |
| 2026-05-06 05:44 | 33.92613 | -118.42210 | 29915 ft | 411 kts | 122° |
| 2026-05-06 05:44 | 33.90713 | -118.39669 | 29649 ft | 405 kts | 124° |
| 2026-05-06 05:44 | 33.88789 | -118.37227 | 29345 ft | 398 kts | 125° |
| 2026-05-06 05:45 | 33.86890 | -118.34835 | 28955 ft | 393 kts | 125° |
| 2026-05-06 05:45 | 33.85021 | -118.32457 | 28526 ft | 389 kts | 125° |
| 2026-05-06 05:45 | 33.83184 | -118.30097 | 28090 ft | 385 kts | 125° |
| 2026-05-06 05:45 | 33.81367 | -118.27747 | 27673 ft | 382 kts | 125° |
| 2026-05-06 05:46 | 33.79567 | -118.25417 | 27268 ft | 379 kts | 126° |
| 2026-05-06 05:46 | 33.77778 | -118.23104 | 26874 ft | 376 kts | 126° |
| 2026-05-06 05:46 | 33.76007 | -118.20796 | 26400 ft | 376 kts | 126° |
| 2026-05-06 05:46 | 33.74248 | -118.18485 | 25968 ft | 373 kts | 126° |
| 2026-05-06 05:47 | 33.72502 | -118.16185 | 25572 ft | 372 kts | 126° |
| 2026-05-06 05:47 | 33.70870 | -118.14037 | 25193 ft | 370 kts | 126° |
| 2026-05-06 05:47 | 33.69137 | -118.11758 | 24811 ft | 369 kts | 127° |
| 2026-05-06 05:47 | 33.67409 | -118.09490 | 24420 ft | 367 kts | 127° |
| 2026-05-06 05:48 | 33.65688 | -118.07231 | 24019 ft | 367 kts | 127° |
| 2026-05-06 05:48 | 33.63969 | -118.04978 | 23613 ft | 366 kts | 127° |
| 2026-05-06 05:48 | 33.62249 | -118.02724 | 23156 ft | 365 kts | 128° |
| 2026-05-06 05:48 | 33.60535 | -118.00482 | 22733 ft | 363 kts | 128° |
| 2026-05-06 05:49 | 33.58830 | -117.98252 | 22324 ft | 361 kts | 128° |
| 2026-05-06 05:49 | 33.57136 | -117.96038 | 21930 ft | 359 kts | 129° |
| 2026-05-06 05:49 | 33.55452 | -117.93839 | 21541 ft | 357 kts | 129° |
| 2026-05-06 05:49 | 33.53727 | -117.91693 | 21137 ft | 357 kts | 132° |
| 2026-05-06 05:50 | 33.51937 | -117.89625 | 20736 ft | 357 kts | 133° |
| 2026-05-06 05:50 | 33.50138 | -117.87578 | 20344 ft | 355 kts | 133° |
| 2026-05-06 05:50 | 33.48353 | -117.85537 | 19966 ft | 354 kts | 133° |
| 2026-05-06 05:50 | 33.46585 | -117.83497 | 19588 ft | 353 kts | 133° |
| 2026-05-06 05:51 | 33.44843 | -117.81479 | 19215 ft | 352 kts | 133° |
| 2026-05-06 05:51 | 33.43075 | -117.79459 | 18836 ft | 352 kts | 135° |
| 2026-05-06 05:51 | 33.41252 | -117.77493 | 18433 ft | 354 kts | 136° |
| 2026-05-06 05:51 | 33.39403 | -117.75538 | 18028 ft | 356 kts | 136° |
| 2026-05-06 05:52 | 33.37508 | -117.73537 | 17643 ft | 372 kts | 136° |
| 2026-05-06 05:52 | 33.35549 | -117.71460 | 17119 ft | 381 kts | 136° |
| 2026-05-06 05:52 | 33.33561 | -117.69348 | 16677 ft | 381 kts | 136° |
| 2026-05-06 05:52 | 33.31585 | -117.67244 | 16251 ft | 379 kts | 136° |
| 2026-05-06 05:53 | 33.29623 | -117.65153 | 15847 ft | 377 kts | 136° |
| 2026-05-06 05:53 | 33.27668 | -117.63070 | 15448 ft | 375 kts | 136° |
| 2026-05-06 05:53 | 33.25728 | -117.61003 | 15055 ft | 373 kts | 136° |
| 2026-05-06 05:53 | 33.23796 | -117.58954 | 14713 ft | 370 kts | 136° |
| 2026-05-06 05:54 | 33.21875 | -117.56931 | 14389 ft | 367 kts | 136° |
| 2026-05-06 05:54 | 33.19966 | -117.54924 | 14050 ft | 364 kts | 136° |
| 2026-05-06 05:54 | 33.18075 | -117.52937 | 13690 ft | 359 kts | 136° |
| 2026-05-06 05:54 | 33.16214 | -117.50980 | 13341 ft | 354 kts | 136° |
| 2026-05-06 05:55 | 33.14374 | -117.49047 | 13004 ft | 349 kts | 136° |
| 2026-05-06 05:55 | 33.12501 | -117.47229 | 12684 ft | 346 kts | 142° |
| 2026-05-06 05:55 | 33.10534 | -117.45610 | 12375 ft | 342 kts | 144° |
| 2026-05-06 05:55 | 33.08593 | -117.44048 | 12068 ft | 339 kts | 144° |
| 2026-05-06 05:56 | 33.06651 | -117.42461 | 11762 ft | 337 kts | 143° |
| 2026-05-06 05:56 | 33.04734 | -117.40875 | 11461 ft | 334 kts | 143° |
| 2026-05-06 05:56 | 33.02836 | -117.39287 | 11162 ft | 332 kts | 143° |
| 2026-05-06 05:56 | 33.00961 | -117.37713 | 10856 ft | 328 kts | 143° |
| 2026-05-06 05:57 | 32.99110 | -117.36157 | 10565 ft | 324 kts | 143° |
| 2026-05-06 05:57 | 32.97277 | -117.34618 | 10271 ft | 320 kts | 143° |
| 2026-05-06 05:57 | 32.95467 | -117.33100 | 9985 ft | 317 kts | 143° |
| 2026-05-06 05:57 | 32.93673 | -117.31598 | 9674 ft | 314 kts | 143° |
| 2026-05-06 05:58 | 32.91909 | -117.30123 | 9356 ft | 305 kts | 143° |
| 2026-05-06 05:58 | 32.90197 | -117.28696 | 9089 ft | 296 kts | 143° |
| 2026-05-06 05:58 | 32.88531 | -117.27312 | 8819 ft | 289 kts | 143° |
| 2026-05-06 05:58 | 32.86894 | -117.25952 | 8561 ft | 285 kts | 143° |
| 2026-05-06 05:59 | 32.85270 | -117.24602 | 8303 ft | 284 kts | 143° |
| 2026-05-06 05:59 | 32.83667 | -117.23271 | 8053 ft | 277 kts | 143° |
| 2026-05-06 05:59 | 32.82120 | -117.21974 | 7795 ft | 267 kts | 139° |
| 2026-05-06 05:59 | 32.81021 | -117.20294 | 7561 ft | 253 kts | 111° |
| 2026-05-06 06:00 | 32.80478 | -117.18358 | 7334 ft | 243 kts | 102° |
| 2026-05-06 06:00 | 32.80069 | -117.16445 | 7119 ft | 235 kts | 102° |
| 2026-05-06 06:00 | 32.79682 | -117.14607 | 6948 ft | 230 kts | 102° |
| 2026-05-06 06:00 | 32.79282 | -117.12750 | 6742 ft | 229 kts | 102° |
| 2026-05-06 06:01 | 32.78886 | -117.10944 | 6554 ft | 228 kts | 102° |
| 2026-05-06 06:01 | 32.78478 | -117.09106 | 6310 ft | 231 kts | 102° |
| 2026-05-06 06:01 | 32.78067 | -117.07258 | 6075 ft | 230 kts | 103° |
| 2026-05-06 06:01 | 32.77578 | -117.05447 | 6012 ft | 228 kts | 112° |
| 2026-05-06 06:02 | 32.76920 | -117.03783 | 5976 ft | 217 kts | 114° |
| 2026-05-06 06:02 | 32.76282 | -117.02212 | 5981 ft | 209 kts | 113° |
| 2026-05-06 06:02 | 32.75658 | -117.00650 | 6001 ft | 209 kts | 113° |
| 2026-05-06 06:02 | 32.75042 | -116.99096 | 5994 ft | 207 kts | 112° |
| 2026-05-06 06:03 | 32.74592 | -116.97481 | 5854 ft | 206 kts | 103° |
| 2026-05-06 06:03 | 32.73931 | -116.95976 | 5678 ft | 210 kts | 135° |
| 2026-05-06 06:03 | 32.72647 | -116.95187 | 5477 ft | 211 kts | 172° |
| 2026-05-06 06:03 | 32.71202 | -116.95328 | 5311 ft | 208 kts | 193° |
| 2026-05-06 06:04 | 32.69798 | -116.95732 | 5012 ft | 207 kts | 200° |
| 2026-05-06 06:04 | 32.68706 | -116.96722 | 4654 ft | 201 kts | 244° |
| 2026-05-06 06:04 | 32.68549 | -116.98315 | 4315 ft | 194 kts | 287° |
| 2026-05-06 06:04 | 32.68937 | -116.99813 | 4019 ft | 191 kts | 284° |
| 2026-05-06 06:05 | 32.69182 | -117.01360 | 3658 ft | 191 kts | 277° |
| 2026-05-06 06:05 | 32.69267 | -117.02933 | 3315 ft | 190 kts | 271° |
| 2026-05-06 06:05 | 32.69335 | -117.04468 | 3097 ft | 182 kts | 281° |
| 2026-05-06 06:05 | 32.69731 | -117.05868 | 2731 ft | 180 kts | 294° |
| 2026-05-06 06:06 | 32.70278 | -117.07205 | 2295 ft | 179 kts | 297° |
| 2026-05-06 06:06 | 32.70856 | -117.08439 | 2157 ft | 165 kts | 297° |
| 2026-05-06 06:06 | 32.71252 | -117.09653 | 1944 ft | 149 kts | 285° |
| 2026-05-06 06:06 | 32.71502 | -117.10789 | 1763 ft | 141 kts | 284° |
| 2026-05-06 06:07 | 32.71726 | -117.11946 | 1446 ft | 145 kts | 282° |
| 2026-05-06 06:07 | 32.71955 | -117.13101 | 1149 ft | 142 kts | 285° |
| 2026-05-06 06:07 | 32.72225 | -117.14209 | 901 ft | 138 kts | 285° |
| 2026-05-06 06:07 | 32.72489 | -117.15311 | 695 ft | 135 kts | 285° |
| 2026-05-06 06:08 | 32.72741 | -117.16398 | 475 ft | 139 kts | 284° |
| 2026-05-06 06:08 | 32.73000 | -117.17490 | 214 ft | 135 kts | 284° |
| 2026-05-06 06:08 | 32.73245 | -117.18503 | 28 ft | 118 kts | 285° |
| 2026-05-06 06:08 | 32.73379 | -117.19071 | 21 ft | 18 kts | 287° |
| 2026-05-06 06:09 | 32.73398 | -117.19138 | 19 ft | 14 kts | 287° |
| 2026-05-06 06:09 | 32.73441 | -117.19312 | 20 ft | 19 kts | 286° |
| 2026-05-06 06:09 | 32.73432 | -117.19466 | 24 ft | 19 kts | 247° |
| 2026-05-06 06:09 | 32.73413 | -117.19612 | 22 ft | 18 kts | 287° |
| 2026-05-06 06:10 | 32.73449 | -117.19752 | 26 ft | 11 kts | 284° |
| 2026-05-06 06:10 | 32.73465 | -117.19831 | 26 ft | 10 kts | 283° |
| 2026-05-06 06:10 | 32.73481 | -117.19908 | 25 ft | 9 kts | 269° |
| 2026-05-06 06:10 | 32.73456 | -117.19980 | 22 ft | 10 kts | 266° |
| 2026-05-06 06:11 | 32.73443 | -117.20055 | 22 ft | 10 kts | 220° |
| 2026-05-06 06:11 | 32.73420 | -117.20074 | 20 ft | 2 kts | 214° |
| 2026-05-06 06:11 | 32.73418 | -117.20076 | 20 ft | 0 kts | 214° |